sensor_id;sensor_type;location;lat;lon;timestamp;pressure;altitude;pressure_sealevel;temperature;humidity
67545;BME280;54380;47.770;11.150;2023-02-26T00:00:11;93951.66;;;1.87;66.79
67545;BME280;54380;47.770;11.150;2023-02-26T00:02:41;93963.69;;;1.88;67.00
67545;BME280;54380;47.770;11.150;2023-02-26T00:05:09;93958.25;;;1.89;66.46
67545;BME280;54380;47.770;11.150;2023-02-26T00:07:53;93957.75;;;1.81;66.93
67545;BME280;54380;47.770;11.150;2023-02-26T00:10:20;93959.31;;;1.82;66.90
67545;BME280;54380;47.770;11.150;2023-02-26T00:13:01;93961.94;;;1.82;66.85
67545;BME280;54380;47.770;11.150;2023-02-26T00:15:42;93965.41;;;1.75;67.21
67545;BME280;54380;47.770;11.150;2023-02-26T00:18:25;93973.00;;;1.77;67.21
67545;BME280;54380;47.770;11.150;2023-02-26T00:21:08;93977.97;;;1.79;67.24
67545;BME280;54380;47.770;11.150;2023-02-26T00:49:39;93981.63;;;2.08;66.38
67545;BME280;54380;47.770;11.150;2023-02-26T00:52:29;93982.81;;;2.12;66.05
67545;BME280;54380;47.770;11.150;2023-02-26T00:55:13;93980.78;;;2.14;66.01
67545;BME280;54380;47.770;11.150;2023-02-26T00:57:54;93982.94;;;2.17;66.19
67545;BME280;54380;47.770;11.150;2023-02-26T01:00:35;93978.31;;;2.19;65.90
67545;BME280;54380;47.770;11.150;2023-02-26T01:03:16;93977.50;;;2.18;65.84
67545;BME280;54380;47.770;11.150;2023-02-26T02:16:36;93986.41;;;1.19;67.33
67545;BME280;54380;47.770;11.150;2023-02-26T02:19:30;93993.47;;;1.12;67.74
67545;BME280;54380;47.770;11.150;2023-02-26T02:22:31;93996.25;;;1.10;67.52
67545;BME280;54380;47.770;11.150;2023-02-26T02:25:25;93991.91;;;1.04;67.83
67545;BME280;54380;47.770;11.150;2023-02-26T02:28:02;93993.94;;;1.02;67.61
67545;BME280;54380;47.770;11.150;2023-02-26T02:30:37;93997.53;;;1.01;67.51
67545;BME280;54380;47.770;11.150;2023-02-26T02:33:18;93993.56;;;0.98;67.65
67545;BME280;54380;47.770;11.150;2023-02-26T02:38:54;93992.63;;;0.93;67.94
67545;BME280;54380;47.770;11.150;2023-02-26T02:41:36;94001.63;;;0.90;68.10
67545;BME280;54380;47.770;11.150;2023-02-26T02:44:21;93998.81;;;0.92;68.17
67545;BME280;54380;47.770;11.150;2023-02-26T02:47:05;93997.00;;;0.92;68.01
67545;BME280;54380;47.770;11.150;2023-02-26T02:49:47;93996.19;;;0.92;67.77
67545;BME280;54380;47.770;11.150;2023-02-26T02:52:18;94003.03;;;0.86;67.70
67545;BME280;54380;47.770;11.150;2023-02-26T02:54:52;94001.47;;;0.85;68.23
67545;BME280;54380;47.770;11.150;2023-02-26T02:57:26;94006.06;;;0.83;68.35
67545;BME280;54380;47.770;11.150;2023-02-26T02:59:58;94007.25;;;0.87;67.99
67545;BME280;54380;47.770;11.150;2023-02-26T03:02:31;94006.81;;;0.90;68.04
67545;BME280;54380;47.770;11.150;2023-02-26T03:05:06;94012.59;;;0.92;68.10
67545;BME280;54380;47.770;11.150;2023-02-26T03:07:41;94006.41;;;0.93;68.05
67545;BME280;54380;47.770;11.150;2023-02-26T03:10:12;94020.59;;;0.91;67.81
67545;BME280;54380;47.770;11.150;2023-02-26T03:12:39;94016.00;;;0.93;67.70
67545;BME280;54380;47.770;11.150;2023-02-26T03:15:07;94020.59;;;0.91;67.81
67545;BME280;54380;47.770;11.150;2023-02-26T03:56:20;94063.13;;;0.71;68.10
67545;BME280;54380;47.770;11.150;2023-02-26T03:58:58;94065.28;;;0.74;67.48
67545;BME280;54380;47.770;11.150;2023-02-26T04:01:54;94061.31;;;0.65;67.64
67545;BME280;54380;47.770;11.150;2023-02-26T04:04:26;94059.94;;;0.62;67.53
67545;BME280;54380;47.770;11.150;2023-02-26T04:06:56;94069.75;;;0.60;67.30
67545;BME280;54380;47.770;11.150;2023-02-26T04:09:23;94080.53;;;0.57;67.07
67545;BME280;54380;47.770;11.150;2023-02-26T04:11:55;94081.56;;;0.56;67.53
67545;BME280;54380;47.770;11.150;2023-02-26T04:14:22;94076.97;;;0.58;67.15
67545;BME280;54380;47.770;11.150;2023-02-26T04:17:03;94074.38;;;0.58;66.89
67545;BME280;54380;47.770;11.150;2023-02-26T04:19:31;94079.59;;;0.52;67.08
67545;BME280;54380;47.770;11.150;2023-02-26T04:21:59;94080.78;;;0.49;67.06
67545;BME280;54380;47.770;11.150;2023-02-26T04:24:26;94081.44;;;0.38;67.02
67545;BME280;54380;47.770;11.150;2023-02-26T04:26:58;94084.88;;;0.32;67.22
67545;BME280;54380;47.770;11.150;2023-02-26T04:29:25;94088.47;;;0.31;67.82
67545;BME280;54380;47.770;11.150;2023-02-26T04:31:53;94095.44;;;0.30;67.58
67545;BME280;54380;47.770;11.150;2023-02-26T04:34:20;94094.47;;;0.25;67.23
67545;BME280;54380;47.770;11.150;2023-02-26T04:36:47;94099.06;;;0.22;67.25
67545;BME280;54380;47.770;11.150;2023-02-26T04:39:14;94099.25;;;0.34;67.39
67545;BME280;54380;47.770;11.150;2023-02-26T04:41:41;94104.63;;;0.33;67.41
67545;BME280;54380;47.770;11.150;2023-02-26T04:44:14;94104.44;;;0.28;67.75
67545;BME280;54380;47.770;11.150;2023-02-26T04:46:47;94104.63;;;0.33;66.99
67545;BME280;54380;47.770;11.150;2023-02-26T04:49:14;94100.66;;;0.30;67.11
67545;BME280;54380;47.770;11.150;2023-02-26T04:51:43;94106.44;;;0.32;67.59
67545;BME280;54380;47.770;11.150;2023-02-26T04:54:14;94106.41;;;0.39;66.88
67545;BME280;54380;47.770;11.150;2023-02-26T04:56:42;94111.00;;;0.37;66.95
67545;BME280;54380;47.770;11.150;2023-02-26T04:59:10;94110.63;;;0.33;67.00
67545;BME280;54380;47.770;11.150;2023-02-26T05:01:42;94102.41;;;0.36;67.00
67545;BME280;54380;47.770;11.150;2023-02-26T05:04:09;94115.00;;;0.33;66.89
67545;BME280;54380;47.770;11.150;2023-02-26T05:06:37;94112.84;;;0.23;67.09
67545;BME280;54380;47.770;11.150;2023-02-26T05:09:04;94112.66;;;0.25;66.88
67545;BME280;54380;47.770;11.150;2023-02-26T05:11:31;94108.84;;;0.20;66.85
67545;BME280;54380;47.770;11.150;2023-02-26T05:13:58;94113.44;;;0.18;67.06
67545;BME280;54380;47.770;11.150;2023-02-26T05:16:25;94116.44;;;0.22;67.01
67545;BME280;54380;47.770;11.150;2023-02-26T05:18:54;94119.47;;;0.19;67.33
67545;BME280;54380;47.770;11.150;2023-02-26T05:21:22;94125.84;;;0.16;67.07
67545;BME280;54380;47.770;11.150;2023-02-26T05:23:51;94142.41;;;0.15;67.17
67545;BME280;54380;47.770;11.150;2023-02-26T05:26:18;94139.63;;;0.10;67.51
67545;BME280;54380;47.770;11.150;2023-02-26T05:28:45;94148.81;;;0.13;67.46
67545;BME280;54380;47.770;11.150;2023-02-26T05:31:12;94154.00;;;0.19;67.51
67545;BME280;54380;47.770;11.150;2023-02-26T05:33:39;94157.19;;;0.21;67.32
67545;BME280;54380;47.770;11.150;2023-02-26T05:36:08;94155.75;;;0.26;66.59
67545;BME280;54380;47.770;11.150;2023-02-26T05:38:35;94159.97;;;0.27;66.98
67545;BME280;54380;47.770;11.150;2023-02-26T05:41:02;94155.94;;;0.31;66.69
67545;BME280;54380;47.770;11.150;2023-02-26T05:43:29;94155.34;;;0.29;66.66
67545;BME280;54380;47.770;11.150;2023-02-26T05:45:56;94161.97;;;0.25;66.80
67545;BME280;54380;47.770;11.150;2023-02-26T05:48:23;94157.38;;;0.27;66.52
67545;BME280;54380;47.770;11.150;2023-02-26T05:50:50;94166.16;;;0.26;66.70
67545;BME280;54380;47.770;11.150;2023-02-26T05:53:19;94165.34;;;0.25;66.87
67545;BME280;54380;47.770;11.150;2023-02-26T05:55:45;94177.91;;;0.28;66.49
67545;BME280;54380;47.770;11.150;2023-02-26T05:58:13;94172.13;;;0.26;66.33
67545;BME280;54380;47.770;11.150;2023-02-26T06:00:40;94179.72;;;0.21;66.21
67545;BME280;54380;47.770;11.150;2023-02-26T06:03:06;94190.31;;;0.19;66.89
67545;BME280;54380;47.770;11.150;2023-02-26T06:05:33;94196.50;;;0.25;66.87
67545;BME280;54380;47.770;11.150;2023-02-26T06:08:01;94195.50;;;0.26;66.68
67545;BME280;54380;47.770;11.150;2023-02-26T06:10:32;94199.28;;;0.24;66.64
67545;BME280;54380;47.770;11.150;2023-02-26T06:12:59;94198.50;;;0.23;66.83
67545;BME280;54380;47.770;11.150;2023-02-26T06:15:26;94205.91;;;0.19;66.49
67545;BME280;54380;47.770;11.150;2023-02-26T06:17:53;94209.88;;;0.15;66.97
67545;BME280;54380;47.770;11.150;2023-02-26T06:20:20;94208.31;;;0.14;67.06
67545;BME280;54380;47.770;11.150;2023-02-26T06:22:47;94213.69;;;0.19;66.51
67545;BME280;54380;47.770;11.150;2023-02-26T06:25:14;94216.25;;;0.26;66.84
67545;BME280;54380;47.770;11.150;2023-02-26T06:27:42;94220.66;;;0.26;66.33
67545;BME280;54380;47.770;11.150;2023-02-26T06:30:10;94223.25;;;0.26;66.15
67545;BME280;54380;47.770;11.150;2023-02-26T06:32:37;94226.66;;;0.19;65.80
67545;BME280;54380;47.770;11.150;2023-02-26T06:35:04;94228.06;;;0.22;65.90
67545;BME280;54380;47.770;11.150;2023-02-26T06:37:32;94228.06;;;0.22;65.76
67545;BME280;54380;47.770;11.150;2023-02-26T06:39:59;94225.88;;;0.19;66.02
67545;BME280;54380;47.770;11.150;2023-02-26T06:42:25;94234.44;;;0.19;65.45
67545;BME280;54380;47.770;11.150;2023-02-26T06:44:54;94234.06;;;0.16;65.85
67545;BME280;54380;47.770;11.150;2023-02-26T06:47:22;94235.84;;;0.15;65.14
67545;BME280;54380;47.770;11.150;2023-02-26T06:49:49;94236.66;;;0.09;65.91
67545;BME280;54380;47.770;11.150;2023-02-26T06:52:16;94239.22;;;0.03;66.45
67545;BME280;54380;47.770;11.150;2023-02-26T06:54:42;94243.63;;;0.02;65.94
67545;BME280;54380;47.770;11.150;2023-02-26T06:57:09;94247.25;;;0.01;66.44
67545;BME280;54380;47.770;11.150;2023-02-26T06:59:37;94252.81;;;0.05;66.21
67545;BME280;54380;47.770;11.150;2023-02-26T07:02:05;94254.81;;;0.03;65.99
67545;BME280;54380;47.770;11.150;2023-02-26T07:04:32;94268.78;;;0.02;65.78
67545;BME280;54380;47.770;11.150;2023-02-26T07:06:59;94267.78;;;-0.04;66.30
67545;BME280;54380;47.770;11.150;2023-02-26T07:09:26;94263.00;;;0.06;66.58
67545;BME280;54380;47.770;11.150;2023-02-26T07:11:53;94265.78;;;0.18;66.07
67545;BME280;54380;47.770;11.150;2023-02-26T07:14:19;94267.38;;;0.26;65.73
67545;BME280;54380;47.770;11.150;2023-02-26T07:16:46;94275.56;;;0.29;65.93
67545;BME280;54380;47.770;11.150;2023-02-26T07:19:14;94278.56;;;0.33;65.71
67545;BME280;54380;47.770;11.150;2023-02-26T07:21:44;94279.56;;;0.32;65.36
67545;BME280;54380;47.770;11.150;2023-02-26T07:24:10;94277.13;;;0.37;65.22
67545;BME280;54380;47.770;11.150;2023-02-26T07:26:37;94277.34;;;0.42;65.32
67545;BME280;54380;47.770;11.150;2023-02-26T07:29:04;94277.72;;;0.52;64.58
67545;BME280;54380;47.770;11.150;2023-02-26T07:31:31;94279.72;;;0.57;63.85
67545;BME280;54380;47.770;11.150;2023-02-26T07:33:58;94289.31;;;0.50;63.93
67545;BME280;54380;47.770;11.150;2023-02-26T07:36:27;94283.34;;;0.42;64.30
67545;BME280;54380;47.770;11.150;2023-02-26T07:38:54;94284.56;;;0.40;64.27
67545;BME280;54380;47.770;11.150;2023-02-26T07:41:21;94292.53;;;0.38;64.09
67545;BME280;54380;47.770;11.150;2023-02-26T07:43:48;94300.91;;;0.34;64.03
67545;BME280;54380;47.770;11.150;2023-02-26T07:46:15;94302.31;;;0.36;64.17
67545;BME280;54380;47.770;11.150;2023-02-26T07:48:42;94310.09;;;0.43;63.96
67545;BME280;54380;47.770;11.150;2023-02-26T07:51:09;94308.50;;;0.42;64.10
67545;BME280;54380;47.770;11.150;2023-02-26T07:53:38;94309.91;;;0.38;64.04
67545;BME280;54380;47.770;11.150;2023-02-26T07:56:05;94318.88;;;0.29;63.80
67545;BME280;54380;47.770;11.150;2023-02-26T07:58:32;94323.88;;;0.24;64.28
67545;BME280;54380;47.770;11.150;2023-02-26T08:00:59;94325.69;;;0.23;64.44
67545;BME280;54380;47.770;11.150;2023-02-26T08:03:25;94327.66;;;0.21;64.15
67545;BME280;54380;47.770;11.150;2023-02-26T08:05:52;94321.09;;;0.25;64.66
67545;BME280;54380;47.770;11.150;2023-02-26T08:08:19;94322.91;;;0.25;64.23
67545;BME280;54380;47.770;11.150;2023-02-26T08:10:47;94330.47;;;0.26;63.81
67545;BME280;54380;47.770;11.150;2023-02-26T08:13:14;94339.06;;;0.27;63.93
67545;BME280;54380;47.770;11.150;2023-02-26T08:15:40;94333.28;;;0.25;63.94
67545;BME280;54380;47.770;11.150;2023-02-26T08:18:09;94335.06;;;0.17;64.29
67545;BME280;54380;47.770;11.150;2023-02-26T08:20:36;94332.47;;;0.24;64.05
67545;BME280;54380;47.770;11.150;2023-02-26T08:23:03;94335.06;;;0.31;64.06
67545;BME280;54380;47.770;11.150;2023-02-26T08:25:29;94337.47;;;0.39;63.87
67545;BME280;54380;47.770;11.150;2023-02-26T08:27:58;94335.66;;;0.39;63.64
67545;BME280;54380;47.770;11.150;2023-02-26T08:30:24;94339.44;;;0.37;63.54
67545;BME280;54380;47.770;11.150;2023-02-26T08:32:51;94348.47;;;0.34;63.35
67545;BME280;54380;47.770;11.150;2023-02-26T08:35:18;94355.25;;;0.35;63.64
67545;BME280;54380;47.770;11.150;2023-02-26T08:37:44;94352.44;;;0.43;63.71
67545;BME280;54380;47.770;11.150;2023-02-26T08:40:12;94349.66;;;0.58;63.50
67545;BME280;54380;47.770;11.150;2023-02-26T08:42:40;94355.41;;;0.60;63.28
67545;BME280;54380;47.770;11.150;2023-02-26T08:45:09;94357.25;;;0.53;62.93
67545;BME280;54380;47.770;11.150;2023-02-26T08:47:37;94368.84;;;0.51;63.53
67545;BME280;54380;47.770;11.150;2023-02-26T08:50:14;94376.00;;;0.55;63.79
67545;BME280;54380;47.770;11.150;2023-02-26T08:52:41;94375.19;;;0.68;63.45
67545;BME280;54380;47.770;11.150;2023-02-26T08:55:08;94371.78;;;0.81;63.14
67545;BME280;54380;47.770;11.150;2023-02-26T08:57:35;94375.00;;;0.90;62.74
67545;BME280;54380;47.770;11.150;2023-02-26T09:00:03;94373.19;;;0.90;62.60
67545;BME280;54380;47.770;11.150;2023-02-26T09:02:32;94384.75;;;0.94;62.56
67545;BME280;54380;47.770;11.150;2023-02-26T09:04:58;94377.75;;;0.95;62.88
67545;BME280;54380;47.770;11.150;2023-02-26T09:07:25;94380.56;;;0.93;62.32
67545;BME280;54380;47.770;11.150;2023-02-26T09:09:52;94380.78;;;0.92;62.14
67545;BME280;54380;47.770;11.150;2023-02-26T09:12:19;94380.38;;;0.88;62.05
67545;BME280;54380;47.770;11.150;2023-02-26T09:14:45;94384.38;;;0.91;62.25
67545;BME280;54380;47.770;11.150;2023-02-26T09:17:12;94382.38;;;0.86;62.54
67545;BME280;54380;47.770;11.150;2023-02-26T09:19:41;94384.56;;;0.89;62.48
67545;BME280;54380;47.770;11.150;2023-02-26T09:22:08;94383.59;;;0.90;62.72
67545;BME280;54380;47.770;11.150;2023-02-26T09:24:34;94393.75;;;0.92;62.09
67545;BME280;54380;47.770;11.150;2023-02-26T09:27:01;94398.75;;;0.93;62.31
67545;BME280;54380;47.770;11.150;2023-02-26T09:29:29;94400.34;;;1.01;62.27
67545;BME280;54380;47.770;11.150;2023-02-26T09:31:55;94401.53;;;1.05;62.54
67545;BME280;54380;47.770;11.150;2023-02-26T09:34:22;94406.50;;;1.20;62.30
67545;BME280;54380;47.770;11.150;2023-02-26T09:36:51;94408.69;;;1.29;62.04
67545;BME280;54380;47.770;11.150;2023-02-26T09:39:17;94409.47;;;1.43;61.97
67545;BME280;54380;47.770;11.150;2023-02-26T09:41:47;94402.63;;;1.56;61.50
67545;BME280;54380;47.770;11.150;2023-02-26T09:44:20;94405.38;;;1.67;60.88
67545;BME280;54380;47.770;11.150;2023-02-26T09:46:57;94408.31;;;1.78;60.48
67545;BME280;54380;47.770;11.150;2023-02-26T09:49:31;94405.13;;;1.75;60.46
67545;BME280;54380;47.770;11.150;2023-02-26T09:52:07;94407.13;;;1.73;60.17
67545;BME280;54380;47.770;11.150;2023-02-26T09:54:41;94405.97;;;1.69;60.02
67545;BME280;54380;47.770;11.150;2023-02-26T09:57:14;94403.13;;;1.71;60.26
67545;BME280;54380;47.770;11.150;2023-02-26T09:59:44;94398.94;;;1.70;60.33
67545;BME280;54380;47.770;11.150;2023-02-26T10:02:15;94399.91;;;1.82;60.18
67545;BME280;54380;47.770;11.150;2023-02-26T10:04:49;94394.03;;;1.93;60.14
67545;BME280;54380;47.770;11.150;2023-02-26T10:07:27;94395.00;;;1.99;59.46
67545;BME280;54380;47.770;11.150;2023-02-26T10:10:06;94389.44;;;1.89;59.34
67545;BME280;54380;47.770;11.150;2023-02-26T10:12:36;94395.25;;;1.91;59.79
67545;BME280;54380;47.770;11.150;2023-02-26T10:15:10;94400.81;;;2.01;59.52
67545;BME280;54380;47.770;11.150;2023-02-26T10:17:45;94392.59;;;2.04;58.38
67545;BME280;54380;47.770;11.150;2023-02-26T10:20:18;94390.78;;;2.05;58.89
67545;BME280;54380;47.770;11.150;2023-02-26T10:22:54;94385.19;;;2.01;58.86
67545;BME280;54380;47.770;11.150;2023-02-26T10:25:25;94381.03;;;1.87;58.59
67545;BME280;54380;47.770;11.150;2023-02-26T10:28:00;94380.25;;;1.86;58.88
67545;BME280;54380;47.770;11.150;2023-02-26T10:30:33;94376.13;;;1.72;58.75
67545;BME280;54380;47.770;11.150;2023-02-26T10:33:09;94381.94;;;1.67;59.24
67545;BME280;54380;47.770;11.150;2023-02-26T10:35:45;94386.38;;;1.60;58.73
67545;BME280;54380;47.770;11.150;2023-02-26T10:38:18;94390.59;;;1.54;57.81
67545;BME280;54380;47.770;11.150;2023-02-26T10:40:49;94392.03;;;1.50;58.03
67545;BME280;54380;47.770;11.150;2023-02-26T10:43:21;94396.63;;;1.48;57.34
67545;BME280;54380;47.770;11.150;2023-02-26T10:45:59;94395.44;;;1.51;59.12
67545;BME280;54380;47.770;11.150;2023-02-26T10:48:42;94390.78;;;1.60;58.72
67545;BME280;54380;47.770;11.150;2023-02-26T10:51:13;94388.56;;;1.63;58.73
67545;BME280;54380;47.770;11.150;2023-02-26T10:53:47;94391.56;;;1.67;57.02
67545;BME280;54380;47.770;11.150;2023-02-26T10:56:19;94389.56;;;1.69;58.25
67545;BME280;54380;47.770;11.150;2023-02-26T10:58:46;94391.94;;;1.77;58.43
67545;BME280;54380;47.770;11.150;2023-02-26T11:01:16;94400.34;;;1.79;58.61
67545;BME280;54380;47.770;11.150;2023-02-26T11:03:46;94412.50;;;1.85;58.23
67545;BME280;54380;47.770;11.150;2023-02-26T11:06:19;94419.50;;;1.85;56.23
67545;BME280;54380;47.770;11.150;2023-02-26T11:08:51;94418.94;;;1.76;55.89
67545;BME280;54380;47.770;11.150;2023-02-26T11:11:37;94420.56;;;1.70;55.80
67545;BME280;54380;47.770;11.150;2023-02-26T11:14:06;94421.00;;;1.61;56.04
67545;BME280;54380;47.770;11.150;2023-02-26T11:16:34;94421.22;;;1.52;55.73
67545;BME280;54380;47.770;11.150;2023-02-26T11:19:10;94431.44;;;1.54;57.58
67545;BME280;54380;47.770;11.150;2023-02-26T11:21:39;94427.59;;;1.63;57.49
67545;BME280;54380;47.770;11.150;2023-02-26T11:24:11;94432.41;;;1.66;57.92
67545;BME280;54380;47.770;11.150;2023-02-26T11:26:42;94433.75;;;1.75;58.39
67545;BME280;54380;47.770;11.150;2023-02-26T11:29:14;94434.50;;;1.89;58.67
67545;BME280;54380;47.770;11.150;2023-02-26T11:31:47;94433.25;;;1.98;57.28
67545;BME280;54380;47.770;11.150;2023-02-26T11:34:14;94435.44;;;2.02;56.42
67545;BME280;54380;47.770;11.150;2023-02-26T11:36:43;94436.59;;;2.12;57.23
67545;BME280;54380;47.770;11.150;2023-02-26T11:39:16;94434.50;;;2.28;57.33
67545;BME280;54380;47.770;11.150;2023-02-26T11:41:45;94429.09;;;2.29;57.69
67545;BME280;54380;47.770;11.150;2023-02-26T11:44:14;94428.72;;;2.26;58.07
67545;BME280;54380;47.770;11.150;2023-02-26T11:46:45;94430.25;;;2.33;57.84
67545;BME280;54380;47.770;11.150;2023-02-26T11:49:15;94426.00;;;2.46;58.06
67545;BME280;54380;47.770;11.150;2023-02-26T11:51:45;94426.09;;;2.57;57.40
67545;BME280;54380;47.770;11.150;2023-02-26T11:54:25;94434.69;;;2.58;56.03
67545;BME280;54380;47.770;11.150;2023-02-26T11:57:00;94439.97;;;2.51;56.70
67545;BME280;54380;47.770;11.150;2023-02-26T11:59:29;94437.78;;;2.48;54.80
67545;BME280;54380;47.770;11.150;2023-02-26T12:02:01;94444.66;;;2.42;54.83
67545;BME280;54380;47.770;11.150;2023-02-26T12:04:30;94442.44;;;2.39;56.04
67545;BME280;54380;47.770;11.150;2023-02-26T12:06:57;94447.25;;;2.42;55.96
67545;BME280;54380;47.770;11.150;2023-02-26T12:09:25;94445.03;;;2.46;56.73
67545;BME280;54380;47.770;11.150;2023-02-26T12:12:10;94437.91;;;2.60;56.63
67545;BME280;54380;47.770;11.150;2023-02-26T12:14:49;94435.78;;;2.75;54.97
67545;BME280;54380;47.770;11.150;2023-02-26T12:17:29;94434.56;;;2.78;54.60
67545;BME280;54380;47.770;11.150;2023-02-26T12:20:12;94438.03;;;2.72;54.59
67545;BME280;54380;47.770;11.150;2023-02-26T12:23:05;94433.09;;;2.63;53.00
67545;BME280;54380;47.770;11.150;2023-02-26T12:25:56;94438.94;;;2.52;54.51
67545;BME280;54380;47.770;11.150;2023-02-26T12:28:42;94437.31;;;2.58;55.18
67545;BME280;54380;47.770;11.150;2023-02-26T12:31:31;94434.69;;;2.58;54.81
67545;BME280;54380;47.770;11.150;2023-02-26T12:34:13;94430.72;;;2.55;55.26
67545;BME280;54380;47.770;11.150;2023-02-26T12:37:01;94417.56;;;2.50;55.23
67545;BME280;54380;47.770;11.150;2023-02-26T12:39:49;94416.56;;;2.45;55.87
67545;BME280;54380;47.770;11.150;2023-02-26T12:42:29;94423.22;;;2.40;55.07
67545;BME280;54380;47.770;11.150;2023-02-26T12:45:08;94432.03;;;2.39;54.55
67545;BME280;54380;47.770;11.150;2023-02-26T12:47:51;94436.25;;;2.34;55.96
67545;BME280;54380;47.770;11.150;2023-02-26T12:50:33;94428.44;;;2.34;56.03
67545;BME280;54380;47.770;11.150;2023-02-26T12:53:32;94426.00;;;2.46;55.79
67545;BME280;54380;47.770;11.150;2023-02-26T12:56:19;94435.13;;;2.55;55.21
67545;BME280;54380;47.770;11.150;2023-02-26T12:59:03;94441.97;;;2.49;54.71
67545;BME280;54380;47.770;11.150;2023-02-26T13:01:44;94452.63;;;2.48;55.56
67545;BME280;54380;47.770;11.150;2023-02-26T13:04:39;94439.97;;;2.76;55.99
67545;BME280;54380;47.770;11.150;2023-02-26T13:07:19;94443.56;;;3.07;54.67
67545;BME280;54380;47.770;11.150;2023-02-26T13:09:56;94445.09;;;3.15;53.33
67545;BME280;54380;47.770;11.150;2023-02-26T13:12:27;94435.16;;;3.05;53.10
67545;BME280;54380;47.770;11.150;2023-02-26T13:15:04;94436.59;;;3.01;54.24
67545;BME280;54380;47.770;11.150;2023-02-26T13:17:42;94435.66;;;2.95;53.28
67545;BME280;54380;47.770;11.150;2023-02-26T13:20:15;94440.47;;;2.92;54.91
67545;BME280;54380;47.770;11.150;2023-02-26T13:22:46;94431.50;;;2.88;55.20
67545;BME280;54380;47.770;11.150;2023-02-26T13:25:18;94433.16;;;2.82;54.39
67545;BME280;54380;47.770;11.150;2023-02-26T13:27:47;94428.75;;;2.76;55.27
67545;BME280;54380;47.770;11.150;2023-02-26T13:30:22;94432.16;;;2.76;56.07
67545;BME280;54380;47.770;11.150;2023-02-26T13:32:53;94431.75;;;2.79;55.98
67545;BME280;54380;47.770;11.150;2023-02-26T13:35:25;94427.13;;;2.81;56.47
67545;BME280;54380;47.770;11.150;2023-02-26T13:37:55;94433.94;;;2.82;56.52
67545;BME280;54380;47.770;11.150;2023-02-26T13:40:37;94437.69;;;2.86;56.16
67545;BME280;54380;47.770;11.150;2023-02-26T13:43:14;94437.50;;;2.88;56.85
67545;BME280;54380;47.770;11.150;2023-02-26T13:45:51;94435.91;;;2.87;56.68
67545;BME280;54380;47.770;11.150;2023-02-26T13:48:34;94440.13;;;2.88;56.65
67545;BME280;54380;47.770;11.150;2023-02-26T13:51:07;94450.19;;;2.84;55.69
67545;BME280;54380;47.770;11.150;2023-02-26T13:53:51;94441.97;;;2.81;56.37
67545;BME280;54380;47.770;11.150;2023-02-26T13:56:21;94446.38;;;2.80;56.25
67545;BME280;54380;47.770;11.150;2023-02-26T13:58:51;94447.41;;;2.79;56.80
67545;BME280;54380;47.770;11.150;2023-02-26T14:01:26;94455.06;;;2.74;56.51
67545;BME280;54380;47.770;11.150;2023-02-26T14:04:07;94454.91;;;2.69;56.59
67545;BME280;54380;47.770;11.150;2023-02-26T14:06:51;94451.31;;;2.63;56.71
67545;BME280;54380;47.770;11.150;2023-02-26T14:09:36;94456.53;;;2.63;57.21
67545;BME280;54380;47.770;11.150;2023-02-26T14:12:34;94462.31;;;2.66;57.30
67545;BME280;54380;47.770;11.150;2023-02-26T14:15:27;94462.56;;;2.57;57.43
67545;BME280;54380;47.770;11.150;2023-02-26T14:18:04;94473.25;;;2.49;57.80
67545;BME280;54380;47.770;11.150;2023-02-26T14:20:33;94476.69;;;2.43;57.73
67545;BME280;54380;47.770;11.150;2023-02-26T14:23:13;94475.72;;;2.37;57.31
67545;BME280;54380;47.770;11.150;2023-02-26T14:25:48;94468.19;;;2.23;57.40
67545;BME280;54380;47.770;11.150;2023-02-26T14:28:33;94464.84;;;2.09;57.34
67545;BME280;54380;47.770;11.150;2023-02-26T14:31:12;94472.09;;;2.00;57.42
67545;BME280;54380;47.770;11.150;2023-02-26T14:33:45;94477.75;;;1.90;57.23
67545;BME280;54380;47.770;11.150;2023-02-26T14:36:19;94477.78;;;1.77;57.43
67545;BME280;54380;47.770;11.150;2023-02-26T14:38:47;94479.59;;;1.70;57.73
67545;BME280;54380;47.770;11.150;2023-02-26T14:41:24;94473.19;;;1.72;57.52
67545;BME280;54380;47.770;11.150;2023-02-26T14:43:59;94481.38;;;1.76;57.03
67545;BME280;54380;47.770;11.150;2023-02-26T14:46:27;94474.78;;;1.73;57.26
67545;BME280;54380;47.770;11.150;2023-02-26T14:48:56;94477.00;;;1.77;57.42
67545;BME280;54380;47.770;11.150;2023-02-26T14:51:32;94472.19;;;1.80;57.58
67545;BME280;54380;47.770;11.150;2023-02-26T14:54:16;94471.34;;;1.86;57.79
67545;BME280;54380;47.770;11.150;2023-02-26T14:56:56;94458.91;;;1.95;57.91
67545;BME280;54380;47.770;11.150;2023-02-26T14:59:36;94464.50;;;1.98;57.67
67545;BME280;54380;47.770;11.150;2023-02-26T15:02:18;94475.69;;;2.06;57.62
67545;BME280;54380;47.770;11.150;2023-02-26T15:07:59;94482.34;;;1.95;56.39
67545;BME280;54380;47.770;11.150;2023-02-26T15:10:40;94478.19;;;1.81;56.78
67545;BME280;54380;47.770;11.150;2023-02-26T15:13:25;94479.41;;;1.71;56.64
67545;BME280;54380;47.770;11.150;2023-02-26T15:15:56;94482.03;;;1.65;57.76
67545;BME280;54380;47.770;11.150;2023-02-26T15:18:57;94485.59;;;1.77;58.06
67545;BME280;54380;47.770;11.150;2023-02-26T15:21:41;94496.38;;;1.87;57.81
67545;BME280;54380;47.770;11.150;2023-02-26T15:24:13;94499.00;;;1.87;57.60
67545;BME280;54380;47.770;11.150;2023-02-26T15:26:45;94506.38;;;1.84;58.01
67545;BME280;54380;47.770;11.150;2023-02-26T15:29:14;94512.59;;;1.76;58.50
67545;BME280;54380;47.770;11.150;2023-02-26T15:31:43;94524.88;;;1.56;59.24
67545;BME280;54380;47.770;11.150;2023-02-26T15:34:14;94526.28;;;1.38;59.67
67545;BME280;54380;47.770;11.150;2023-02-26T15:36:44;94526.09;;;1.33;60.51
67545;BME280;54380;47.770;11.150;2023-02-26T15:39:12;94520.91;;;1.33;60.95
67545;BME280;54380;47.770;11.150;2023-02-26T15:41:42;94516.91;;;1.37;60.68
67545;BME280;54380;47.770;11.150;2023-02-26T15:44:15;94525.47;;;1.44;60.97
67545;BME280;54380;47.770;11.150;2023-02-26T15:46:46;94520.47;;;1.49;60.41
67545;BME280;54380;47.770;11.150;2023-02-26T15:49:22;94527.47;;;1.49;60.17